createdAt,value
2018-12-15T00:00:26.903Z,30.23
2018-12-15T00:03:05.075Z,50.97
2018-12-15T00:05:39.930Z,30.87
2018-12-15T00:08:14.797Z,32.03
2018-12-15T00:10:48.818Z,27.37
2018-12-15T00:13:23.172Z,24.30
2018-12-15T00:15:57.991Z,25.40
2018-12-15T00:18:32.204Z,25.60
2018-12-15T00:21:06.151Z,24.10
2018-12-15T00:23:40.212Z,24.37
2018-12-15T00:26:15.025Z,22.63
2018-12-15T00:28:52.938Z,24.90
2018-12-15T00:31:27.287Z,25.73
2018-12-15T00:34:02.765Z,24.03
2018-12-15T00:36:37.761Z,24.80
2018-12-15T00:39:12.580Z,25.03
2018-12-15T00:41:46.579Z,24.50
2018-12-15T00:44:20.771Z,24.87
2018-12-15T00:46:54.893Z,25.20
2018-12-15T00:49:29.970Z,24.70
2018-12-15T00:52:03.965Z,24.23
2018-12-15T00:54:37.992Z,24.13
2018-12-15T00:57:15.983Z,24.17
2018-12-15T00:59:50.015Z,24.60
2018-12-15T01:02:29.228Z,24.90
2018-12-15T01:05:03.544Z,25.20
2018-12-15T01:07:37.627Z,28.03
2018-12-15T01:10:15.734Z,25.70
2018-12-15T01:12:49.763Z,24.03
2018-12-15T01:15:33.231Z,25.67
2018-12-15T01:18:07.331Z,24.27
2018-12-15T01:20:41.447Z,24.80
2018-12-15T01:23:19.514Z,26.40
2018-12-15T01:25:53.663Z,28.57
2018-12-15T01:28:28.076Z,26.60
2018-12-15T01:31:02.308Z,26.83
2018-12-15T01:33:36.296Z,28.80
2018-12-15T01:36:10.588Z,27.60
2018-12-15T01:38:44.600Z,27.87
2018-12-15T01:41:18.884Z,29.93
2018-12-15T01:43:53.106Z,30.73
2018-12-15T01:46:27.318Z,28.50
2018-12-15T01:49:01.271Z,27.33
2018-12-15T01:51:35.629Z,25.50
2018-12-15T01:54:09.736Z,24.17
2018-12-15T01:56:43.880Z,26.33
2018-12-15T01:59:17.829Z,27.37
2018-12-15T02:42:35.704Z,27.17
2018-12-15T02:45:14.648Z,26.97
2018-12-15T02:47:49.163Z,26.90
2018-12-15T02:50:27.928Z,27.90
2018-12-15T02:53:01.903Z,28.77
2018-12-15T02:55:35.768Z,28.70
2018-12-15T02:58:09.967Z,28.73
2018-12-15T03:00:43.939Z,27.57
2018-12-15T03:03:22.682Z,26.93
2018-12-15T03:05:57.431Z,27.10
2018-12-15T03:08:31.389Z,28.37
2018-12-15T03:11:05.438Z,28.30
2018-12-15T03:13:39.718Z,28.00
2018-12-15T03:16:13.682Z,28.63
2018-12-15T03:18:47.883Z,27.77
2018-12-15T03:21:21.952Z,30.10
2018-12-15T03:23:56.242Z,31.93
2018-12-15T03:26:30.459Z,29.83
2018-12-15T03:29:04.541Z,30.50
2018-12-15T03:31:38.730Z,28.67
2018-12-15T03:34:12.880Z,29.70
2018-12-15T03:36:46.885Z,28.57
2018-12-15T03:39:21.242Z,28.57
2018-12-15T03:41:56.253Z,27.90
2018-12-15T04:02:23.748Z,29.83
2018-12-15T04:04:58.030Z,31.00
2018-12-15T04:07:32.680Z,31.43
2018-12-15T04:10:07.043Z,30.10
2018-12-15T04:12:45.019Z,31.97
2018-12-15T04:15:18.915Z,32.30
2018-12-15T04:17:53.361Z,31.40
2018-12-15T04:20:31.264Z,32.30
2018-12-15T04:23:05.439Z,32.33
2018-12-15T04:25:39.656Z,31.40
2018-12-15T04:28:17.990Z,30.77
2018-12-15T04:30:52.112Z,31.60
2018-12-15T04:33:25.977Z,31.67
2018-12-15T04:36:07.209Z,30.27
2018-12-15T04:38:41.551Z,30.87
2018-12-15T04:41:15.638Z,28.57
2018-12-15T04:43:50.671Z,31.00
2018-12-15T04:46:25.815Z,31.10
2018-12-15T04:49:00.152Z,30.17
2018-12-15T04:51:38.510Z,29.60
2018-12-15T04:54:16.648Z,29.53
2018-12-15T04:56:50.584Z,31.07
2018-12-15T04:59:24.800Z,29.17
2018-12-15T05:01:58.995Z,28.77
2018-12-15T05:07:05.956Z,30.83
2018-12-15T05:09:40.132Z,30.00
2018-12-15T05:12:14.033Z,31.33
2018-12-15T05:14:48.303Z,29.20
2018-12-15T05:17:29.325Z,30.80
2018-12-15T05:20:04.432Z,28.63
2018-12-15T05:22:39.239Z,28.83
2018-12-15T05:25:13.447Z,29.50
2018-12-15T05:27:47.541Z,30.07
2018-12-15T05:30:21.411Z,29.50
2018-12-15T05:32:55.347Z,28.13
2018-12-15T05:35:29.935Z,29.60
2018-12-15T05:38:04.601Z,28.00
2018-12-15T05:40:38.617Z,27.80
2018-12-15T05:43:13.545Z,28.27
2018-12-15T05:45:48.360Z,28.80
2018-12-15T05:48:25.360Z,29.27
2018-12-15T05:50:59.783Z,28.90
2018-12-15T05:53:34.080Z,29.87
2018-12-15T05:56:12.203Z,28.67
2018-12-15T05:58:46.503Z,28.57
2018-12-15T06:01:20.303Z,29.80
2018-12-15T06:03:54.458Z,29.30
2018-12-15T06:14:07.012Z,29.93
2018-12-15T06:16:41.926Z,28.03
2018-12-15T06:19:16.740Z,29.37
2018-12-15T06:21:50.876Z,27.57
2018-12-15T06:24:24.909Z,27.40
2018-12-15T06:26:59.059Z,25.80
2018-12-15T06:29:33.180Z,26.37
2018-12-15T06:32:07.382Z,25.27
2018-12-15T06:34:41.415Z,25.23
2018-12-15T06:37:15.575Z,25.53
2018-12-15T06:39:49.676Z,24.80
2018-12-15T06:42:23.774Z,24.07
2018-12-15T06:44:58.303Z,25.97
2018-12-15T06:47:32.341Z,25.63
2018-12-15T06:50:11.067Z,24.90
2018-12-15T06:52:45.929Z,25.80
2018-12-15T06:55:19.914Z,22.97
2018-12-15T06:57:54.004Z,24.67
2018-12-15T07:00:28.197Z,24.43
2018-12-15T07:03:02.347Z,26.53
2018-12-15T07:05:36.425Z,26.20
2018-12-15T07:08:10.668Z,23.07
2018-12-15T07:10:45.363Z,25.40
2018-12-15T07:13:19.392Z,24.60
2018-12-15T07:15:53.899Z,25.60
2018-12-15T07:18:28.619Z,24.90
2018-12-15T07:21:06.899Z,26.67
2018-12-15T07:23:44.973Z,25.30
2018-12-15T07:26:19.013Z,24.20
2018-12-15T07:28:57.019Z,25.43
2018-12-15T07:31:31.039Z,24.47
2018-12-15T07:34:05.224Z,23.33
2018-12-15T07:36:39.809Z,23.87
2018-12-15T07:39:14.431Z,23.30
2018-12-15T07:41:48.946Z,24.57
2018-12-15T07:44:22.822Z,24.30
2018-12-15T07:46:57.092Z,22.47
2018-12-15T07:49:32.028Z,23.13
2018-12-15T07:52:06.318Z,23.67
2018-12-15T07:54:40.465Z,23.20
2018-12-15T07:57:15.380Z,22.00
2018-12-15T07:59:49.438Z,22.83
2018-12-15T08:02:23.501Z,23.03
2018-12-15T08:04:57.671Z,22.63
2018-12-15T08:07:31.777Z,22.60
2018-12-15T08:10:07.545Z,21.40
2018-12-15T08:12:43.534Z,22.67
2018-12-15T08:15:18.463Z,23.20
2018-12-15T08:33:09.793Z,22.07
2018-12-15T08:35:44.739Z,19.40
2018-12-15T08:38:19.637Z,22.00
2018-12-15T08:40:53.875Z,20.57
2018-12-15T08:43:27.963Z,20.73
2018-12-15T08:46:09.088Z,20.73
2018-12-15T08:48:43.667Z,21.47
2018-12-15T08:51:18.606Z,26.70
2018-12-15T08:53:52.607Z,28.00
2018-12-15T08:56:26.641Z,22.13
2018-12-15T08:59:00.848Z,21.03
2018-12-15T09:01:34.650Z,20.43
2018-12-15T09:04:09.444Z,21.13
2018-12-15T09:06:43.732Z,20.83
2018-12-15T09:09:18.211Z,19.97
2018-12-15T09:11:52.405Z,20.67
2018-12-15T09:14:26.548Z,19.37
2018-12-15T09:17:00.675Z,19.67
2018-12-15T09:19:35.721Z,19.23
2018-12-15T09:22:11.597Z,19.63
2018-12-15T09:24:50.004Z,19.73
2018-12-15T09:27:27.869Z,19.53
2018-12-15T09:30:01.912Z,19.10
2018-12-15T09:32:40.231Z,18.57
2018-12-15T09:35:14.525Z,18.60
2018-12-15T09:37:48.480Z,19.33
2018-12-15T09:40:22.669Z,24.00
2018-12-15T09:43:00.981Z,23.93
2018-12-15T09:45:35.356Z,19.43
2018-12-15T09:48:13.579Z,18.67
2018-12-15T09:50:47.799Z,17.90
2018-12-15T09:53:21.879Z,17.10
2018-12-15T09:55:56.510Z,17.90
2018-12-15T09:58:31.155Z,17.07
2018-12-15T10:01:05.580Z,17.20
2018-12-15T10:03:39.539Z,15.60
2018-12-15T10:06:13.629Z,15.50
2018-12-15T10:08:47.629Z,15.77
2018-12-15T10:11:21.749Z,16.47
2018-12-15T10:14:00.550Z,16.47
2018-12-15T10:16:34.714Z,16.20
2018-12-15T10:19:09.827Z,16.40
2018-12-15T10:21:44.079Z,15.20
2018-12-15T10:24:18.034Z,15.63
2018-12-15T10:26:52.864Z,15.73
2018-12-15T10:29:31.932Z,15.70
2018-12-15T10:32:11.315Z,16.33
2018-12-15T10:34:45.637Z,20.83
2018-12-15T10:50:03.796Z,14.93
2018-12-15T10:52:37.785Z,14.93
2018-12-15T10:55:12.020Z,15.60
2018-12-15T10:57:47.178Z,15.30
2018-12-15T11:00:27.023Z,15.90
2018-12-15T11:03:01.405Z,16.57
2018-12-15T11:05:35.439Z,14.17
2018-12-15T11:08:09.407Z,14.80
2018-12-15T11:10:48.022Z,15.30
2018-12-15T11:13:22.251Z,14.73
2018-12-15T11:15:56.564Z,15.67
2018-12-15T11:18:30.711Z,18.03
2018-12-15T11:21:04.775Z,16.10
2018-12-15T11:23:39.576Z,15.63
2018-12-15T11:26:14.531Z,16.47
2018-12-15T11:28:48.742Z,34.03
2018-12-15T11:31:23.013Z,28.50
2018-12-15T11:33:57.323Z,17.77
2018-12-15T11:36:35.989Z,31.90
2018-12-15T11:39:10.116Z,27.47
2018-12-15T11:41:48.158Z,26.93
2018-12-15T11:44:22.092Z,18.73
2018-12-15T11:46:56.454Z,18.47
2018-12-15T11:49:34.884Z,15.90
2018-12-15T11:52:10.042Z,16.03
2018-12-15T11:54:48.166Z,16.53
2018-12-15T11:57:23.028Z,18.03
2018-12-15T11:59:56.938Z,19.77
2018-12-15T12:02:31.972Z,18.53
2018-12-15T12:05:06.875Z,15.87
2018-12-15T12:07:41.604Z,16.70
2018-12-15T12:10:15.608Z,16.77
2018-12-15T12:12:50.033Z,15.47
2018-12-15T12:15:24.329Z,18.03
2018-12-15T12:18:02.418Z,20.13
2018-12-15T12:20:36.732Z,18.80
2018-12-15T12:23:10.738Z,16.37
2018-12-15T12:25:44.835Z,18.00
2018-12-15T12:28:18.919Z,16.23
2018-12-15T12:30:52.971Z,17.03
2018-12-15T12:33:27.048Z,16.27
2018-12-15T12:36:00.955Z,16.37
2018-12-15T12:38:35.015Z,16.33
2018-12-15T12:41:09.153Z,15.30
2018-12-15T12:43:44.323Z,15.20
2018-12-15T12:46:18.329Z,16.73
2018-12-15T12:48:52.444Z,16.10
2018-12-15T12:51:30.736Z,14.87
2018-12-15T12:54:05.103Z,16.00
2018-12-15T12:56:39.957Z,16.30
2018-12-15T12:59:14.985Z,17.63
2018-12-15T13:01:49.220Z,15.57
2018-12-15T13:04:28.187Z,15.33
2018-12-15T13:07:02.305Z,14.83
2018-12-15T13:09:36.316Z,14.90
2018-12-15T13:12:10.425Z,15.50
2018-12-15T13:14:44.824Z,15.40
2018-12-15T13:17:18.725Z,16.00
2018-12-15T13:19:52.673Z,15.07
2018-12-15T13:22:26.999Z,15.23
2018-12-15T13:25:01.197Z,14.30
2018-12-15T13:27:35.331Z,14.87
2018-12-15T13:30:10.068Z,21.80
2018-12-15T13:32:44.446Z,19.10
2018-12-15T13:35:18.741Z,15.60
2018-12-15T13:37:58.603Z,15.57
2018-12-15T13:40:32.775Z,14.73
2018-12-15T13:43:07.688Z,14.33
2018-12-15T13:45:42.424Z,14.60
2018-12-15T13:48:16.699Z,14.77
2018-12-15T13:50:50.951Z,14.97
2018-12-15T13:53:24.859Z,14.43
2018-12-15T13:55:59.157Z,14.03
2018-12-15T13:58:33.144Z,14.77
2018-12-15T14:01:07.186Z,16.03
2018-12-15T14:03:45.616Z,16.87
2018-12-15T14:06:20.450Z,14.47
2018-12-15T14:08:54.563Z,16.20
2018-12-15T14:11:29.481Z,14.73
2018-12-15T14:14:04.070Z,14.63
2018-12-15T14:16:43.053Z,15.27
2018-12-15T14:19:18.084Z,15.73
2018-12-15T14:21:52.032Z,14.90
2018-12-15T14:24:25.888Z,15.40
2018-12-15T14:26:59.920Z,14.73
2018-12-15T14:29:33.941Z,15.47
2018-12-15T14:32:08.029Z,15.53
2018-12-15T14:34:43.369Z,15.60
2018-12-15T14:37:17.457Z,15.33
2018-12-15T14:39:52.291Z,14.50
2018-12-15T14:42:26.912Z,14.70
2018-12-15T14:45:05.009Z,15.97
2018-12-15T14:47:43.028Z,14.70
2018-12-15T14:50:23.226Z,14.97
2018-12-15T14:52:54.935Z,14.13
2018-12-15T14:55:28.985Z,16.30
2018-12-15T14:58:03.334Z,15.67
2018-12-15T15:03:10.350Z,15.10
2018-12-15T15:05:44.565Z,19.67
2018-12-15T15:08:18.711Z,23.47
2018-12-15T15:10:53.203Z,16.23
2018-12-15T15:13:34.324Z,16.73
2018-12-15T15:16:04.535Z,16.20
2018-12-15T15:18:38.621Z,15.20
2018-12-15T15:21:12.559Z,16.57
2018-12-15T15:23:47.806Z,22.97
2018-12-15T15:26:21.788Z,22.43
2018-12-15T15:28:55.924Z,16.00
2018-12-15T15:31:30.199Z,15.90
2018-12-15T15:34:04.303Z,14.40
2018-12-15T15:36:38.971Z,15.90
2018-12-15T15:39:13.876Z,14.90
2018-12-15T15:41:48.292Z,15.77
2018-12-15T15:44:22.242Z,15.53
2018-12-15T15:46:56.322Z,16.37
2018-12-15T15:49:31.153Z,16.53
2018-12-15T15:52:05.344Z,15.73
2018-12-15T15:54:39.717Z,19.50
2018-12-15T15:57:14.507Z,28.47
2018-12-15T15:59:49.206Z,16.97
2018-12-15T16:20:16.643Z,16.10
2018-12-15T16:22:50.635Z,16.90
2018-12-15T16:25:24.692Z,28.00
2018-12-15T16:27:59.076Z,16.87
2018-12-15T16:30:34.021Z,14.87
2018-12-15T16:33:08.287Z,13.73
2018-12-15T16:35:42.432Z,15.07
2018-12-15T16:38:16.439Z,15.80
2018-12-15T16:40:50.368Z,14.27
2018-12-15T16:43:24.368Z,15.03
2018-12-15T16:45:59.113Z,13.90
2018-12-15T16:48:33.665Z,14.17
2018-12-15T16:51:12.852Z,14.23
2018-12-15T16:53:47.542Z,13.60
2018-12-15T16:56:21.517Z,14.43
2018-12-15T16:58:55.433Z,14.83
2018-12-15T17:01:29.751Z,13.83
2018-12-15T17:04:04.680Z,13.50
2018-12-15T17:06:43.552Z,13.87
2018-12-15T17:09:17.703Z,14.80
2018-12-15T17:11:52.191Z,14.87
2018-12-15T17:14:26.912Z,13.97
2018-12-15T17:17:05.100Z,14.70
2018-12-15T17:19:39.345Z,14.40
2018-12-15T17:22:13.654Z,19.20
2018-12-15T17:24:47.870Z,19.97
2018-12-15T17:27:30.959Z,21.90
2018-12-15T17:30:06.517Z,17.47
2018-12-15T17:32:41.633Z,17.50
2018-12-15T17:35:16.453Z,16.47
2018-12-15T17:37:50.691Z,16.43
2018-12-15T17:40:24.778Z,15.33
2018-12-15T17:42:59.591Z,14.90
2018-12-15T17:45:34.374Z,14.93
2018-12-15T17:48:09.353Z,15.70
2018-12-15T17:50:43.966Z,14.27
2018-12-15T17:53:18.817Z,15.10
2018-12-15T17:55:53.113Z,15.00
2018-12-15T17:58:27.666Z,15.07
2018-12-15T18:01:01.842Z,15.90
2018-12-15T18:03:36.051Z,15.10
2018-12-15T18:06:10.065Z,15.23
2018-12-15T18:08:44.277Z,15.30
2018-12-15T18:11:18.791Z,15.20
2018-12-15T18:13:53.752Z,15.43
2018-12-15T18:16:31.822Z,16.00
2018-12-15T18:19:06.797Z,15.80
2018-12-15T18:21:45.224Z,15.53
2018-12-15T18:24:19.353Z,14.57
2018-12-15T18:26:54.147Z,15.13
2018-12-15T18:29:28.317Z,22.53
2018-12-15T18:32:07.176Z,17.33
2018-12-15T18:34:42.035Z,21.30
2018-12-15T18:37:17.074Z,18.57
2018-12-15T18:39:55.926Z,16.07
2018-12-15T18:42:30.921Z,17.83
2018-12-15T18:45:06.905Z,18.93
2018-12-15T18:47:40.983Z,17.73
2018-12-15T18:50:15.221Z,17.23
2018-12-15T18:52:50.042Z,16.97
2018-12-15T18:55:24.420Z,17.30
2018-12-15T18:57:58.666Z,16.40
2018-12-15T19:00:33.527Z,17.10
2018-12-15T19:03:09.636Z,15.97
2018-12-15T19:05:48.688Z,17.53
2018-12-15T19:08:23.429Z,20.60
2018-12-15T19:10:58.025Z,21.07
2018-12-15T19:13:33.157Z,26.33
2018-12-15T19:16:07.283Z,22.40
2018-12-15T19:18:41.767Z,23.27
2018-12-15T19:21:22.802Z,20.43
2018-12-15T19:23:53.030Z,23.70
2018-12-15T19:26:27.144Z,18.00
2018-12-15T19:29:01.263Z,19.60
2018-12-15T19:31:40.515Z,19.80
2018-12-15T19:34:17.625Z,20.60
2018-12-15T19:36:52.323Z,19.10
2018-12-15T19:39:27.076Z,18.53
2018-12-15T19:42:01.799Z,16.53
2018-12-15T19:44:37.545Z,17.77
2018-12-15T19:47:12.435Z,18.47
2018-12-15T19:49:47.155Z,19.70
2018-12-15T19:52:22.117Z,19.37
2018-12-15T19:54:56.438Z,19.23
2018-12-15T19:57:31.404Z,20.07
2018-12-15T20:00:07.133Z,20.57
2018-12-15T20:02:41.412Z,33.67
2018-12-15T20:05:16.251Z,20.67
2018-12-15T20:07:51.100Z,31.47
2018-12-15T20:10:25.247Z,25.97
2018-12-15T20:12:59.284Z,19.90
2018-12-15T20:15:34.209Z,17.77
2018-12-15T20:18:09.277Z,18.90
2018-12-15T20:20:44.108Z,18.03
2018-12-15T20:23:23.564Z,19.23
2018-12-15T20:25:57.566Z,17.80
2018-12-15T20:28:31.724Z,22.10
2018-12-15T20:38:45.221Z,36.90
2018-12-15T20:41:24.777Z,20.33
2018-12-15T20:43:59.022Z,17.93
2018-12-15T20:46:37.149Z,18.13
2018-12-15T20:49:13.758Z,18.80
2018-12-15T20:51:48.439Z,18.23
2018-12-15T20:54:23.505Z,18.20
2018-12-15T20:56:58.653Z,19.67
2018-12-15T20:59:33.386Z,18.77
2018-12-15T21:02:07.358Z,18.13
2018-12-15T21:04:41.627Z,18.50
2018-12-15T21:07:16.468Z,18.40
2018-12-15T21:09:50.726Z,20.30
2018-12-15T21:12:25.791Z,20.67
2018-12-15T21:15:05.339Z,21.93
2018-12-15T21:17:44.135Z,18.83
2018-12-15T21:20:18.532Z,18.87
2018-12-15T21:22:52.690Z,18.23
2018-12-15T21:25:31.008Z,20.40
2018-12-15T21:28:05.987Z,19.93
2018-12-15T21:30:40.063Z,19.97
2018-12-15T21:33:14.260Z,18.70
2018-12-15T21:35:52.504Z,18.83
2018-12-15T21:43:32.084Z,19.33
2018-12-15T21:46:06.348Z,17.33
2018-12-15T21:48:40.533Z,21.27
2018-12-15T21:51:19.588Z,24.80
2018-12-15T21:53:54.527Z,32.20
2018-12-15T21:56:28.467Z,39.67
2018-12-15T21:59:02.575Z,19.07
2018-12-15T22:01:36.863Z,18.07
2018-12-15T22:04:11.425Z,18.73
2018-12-15T22:06:46.150Z,17.57
2018-12-15T22:09:20.257Z,18.50
2018-12-15T22:11:55.234Z,17.20
2018-12-15T22:14:29.690Z,17.13
2018-12-15T22:17:04.647Z,18.10
2018-12-15T22:19:39.658Z,18.47
2018-12-15T22:22:14.791Z,17.27
2018-12-15T22:24:49.970Z,16.57
2018-12-15T22:27:25.225Z,18.73
2018-12-15T22:30:00.296Z,17.50
2018-12-15T22:32:34.374Z,17.13
2018-12-15T22:35:08.621Z,17.27
2018-12-15T22:37:42.790Z,16.80
2018-12-15T22:40:16.886Z,19.27
2018-12-15T22:42:50.970Z,18.47
2018-12-15T22:55:41.469Z,16.73
2018-12-15T22:58:20.269Z,17.60
2018-12-15T23:01:00.197Z,17.00
2018-12-15T23:03:34.343Z,17.23
2018-12-15T23:06:09.395Z,22.67
2018-12-15T23:08:44.379Z,17.63
2018-12-15T23:11:18.563Z,31.33
2018-12-15T23:13:53.117Z,24.17
2018-12-15T23:16:28.701Z,17.43
2018-12-15T23:19:03.255Z,17.50
2018-12-15T23:21:37.567Z,17.40
2018-12-15T23:24:16.848Z,18.43
2018-12-15T23:26:51.730Z,16.63
2018-12-15T23:29:26.597Z,18.07
2018-12-15T23:32:01.560Z,17.57
2018-12-15T23:34:36.483Z,18.63
2018-12-15T23:37:11.084Z,17.07
2018-12-15T23:39:45.901Z,18.53
2018-12-15T23:42:20.202Z,18.23
2018-12-15T23:44:54.549Z,18.60
2018-12-15T23:47:30.627Z,17.53
2018-12-15T23:50:05.887Z,16.07
2018-12-15T23:52:40.812Z,17.20
